sensor_id;sensor_type;location;lat;lon;timestamp;P1;durP1;ratioP1;P2;durP2;ratioP2
45114;SDS011;30877;43.706;10.780;2022-11-15T00:02:12;12.60;;;8.57;;
45114;SDS011;30877;43.706;10.780;2022-11-15T00:04:58;10.15;;;8.68;;
45114;SDS011;30877;43.706;10.780;2022-11-15T00:07:45;9.40;;;8.23;;
45114;SDS011;30877;43.706;10.780;2022-11-15T00:10:42;12.32;;;8.73;;
45114;SDS011;30877;43.706;10.780;2022-11-15T00:13:28;12.88;;;8.90;;
45114;SDS011;30877;43.706;10.780;2022-11-15T00:16:15;11.15;;;7.93;;
45114;SDS011;30877;43.706;10.780;2022-11-15T00:19:02;10.87;;;8.33;;
45114;SDS011;30877;43.706;10.780;2022-11-15T00:21:48;10.73;;;8.50;;
45114;SDS011;30877;43.706;10.780;2022-11-15T00:24:34;10.05;;;8.30;;
45114;SDS011;30877;43.706;10.780;2022-11-15T00:27:22;12.40;;;8.63;;
45114;SDS011;30877;43.706;10.780;2022-11-15T00:30:09;10.60;;;7.95;;
45114;SDS011;30877;43.706;10.780;2022-11-15T00:32:56;10.48;;;8.55;;
45114;SDS011;30877;43.706;10.780;2022-11-15T00:35:46;10.35;;;8.50;;
45114;SDS011;30877;43.706;10.780;2022-11-15T00:38:33;10.17;;;8.67;;
45114;SDS011;30877;43.706;10.780;2022-11-15T00:41:20;11.05;;;8.13;;
45114;SDS011;30877;43.706;10.780;2022-11-15T00:44:08;10.63;;;8.48;;
45114;SDS011;30877;43.706;10.780;2022-11-15T00:46:54;12.98;;;8.90;;
45114;SDS011;30877;43.706;10.780;2022-11-15T00:49:41;12.55;;;9.13;;
45114;SDS011;30877;43.706;10.780;2022-11-15T00:52:27;11.32;;;8.18;;
45114;SDS011;30877;43.706;10.780;2022-11-15T00:55:14;10.90;;;8.95;;
45114;SDS011;30877;43.706;10.780;2022-11-15T01:00:49;12.43;;;8.70;;
45114;SDS011;30877;43.706;10.780;2022-11-15T01:03:36;13.35;;;9.35;;
45114;SDS011;30877;43.706;10.780;2022-11-15T01:06:23;11.65;;;9.20;;
45114;SDS011;30877;43.706;10.780;2022-11-15T01:09:10;11.27;;;9.18;;
45114;SDS011;30877;43.706;10.780;2022-11-15T01:11:56;12.48;;;9.27;;
45114;SDS011;30877;43.706;10.780;2022-11-15T01:14:43;11.37;;;7.97;;
45114;SDS011;30877;43.706;10.780;2022-11-15T01:17:31;10.55;;;8.40;;
45114;SDS011;30877;43.706;10.780;2022-11-15T01:20:17;10.93;;;8.65;;
45114;SDS011;30877;43.706;10.780;2022-11-15T01:23:04;12.10;;;8.65;;
45114;SDS011;30877;43.706;10.780;2022-11-15T01:25:50;11.10;;;8.27;;
45114;SDS011;30877;43.706;10.780;2022-11-15T01:28:38;13.25;;;8.75;;
45114;SDS011;30877;43.706;10.780;2022-11-15T01:31:25;11.68;;;8.52;;
45114;SDS011;30877;43.706;10.780;2022-11-15T01:34:13;10.05;;;7.45;;
45114;SDS011;30877;43.706;10.780;2022-11-15T01:37:17;10.55;;;8.13;;
45114;SDS011;30877;43.706;10.780;2022-11-15T01:40:04;12.23;;;8.77;;
45114;SDS011;30877;43.706;10.780;2022-11-15T01:42:51;11.93;;;9.27;;
45114;SDS011;30877;43.706;10.780;2022-11-15T01:45:37;12.00;;;8.90;;
45114;SDS011;30877;43.706;10.780;2022-11-15T01:48:24;10.15;;;8.10;;
45114;SDS011;30877;43.706;10.780;2022-11-15T01:51:19;13.40;;;8.77;;
45114;SDS011;30877;43.706;10.780;2022-11-15T01:54:09;12.10;;;8.70;;
45114;SDS011;30877;43.706;10.780;2022-11-15T01:57:03;13.07;;;7.90;;
45114;SDS011;30877;43.706;10.780;2022-11-15T01:59:52;12.07;;;8.02;;
45114;SDS011;30877;43.706;10.780;2022-11-15T02:02:39;11.43;;;8.35;;
45114;SDS011;30877;43.706;10.780;2022-11-15T02:05:26;10.50;;;8.20;;
45114;SDS011;30877;43.706;10.780;2022-11-15T02:08:14;10.15;;;7.78;;
45114;SDS011;30877;43.706;10.780;2022-11-15T02:11:07;10.43;;;7.80;;
45114;SDS011;30877;43.706;10.780;2022-11-15T02:13:54;10.63;;;8.57;;
45114;SDS011;30877;43.706;10.780;2022-11-15T02:16:42;9.18;;;7.85;;
45114;SDS011;30877;43.706;10.780;2022-11-15T02:19:49;10.10;;;7.20;;
45114;SDS011;30877;43.706;10.780;2022-11-15T02:26:55;9.13;;;8.07;;
45114;SDS011;30877;43.706;10.780;2022-11-15T02:30:04;9.73;;;8.13;;
45114;SDS011;30877;43.706;10.780;2022-11-15T02:33:10;8.73;;;7.50;;
45114;SDS011;30877;43.706;10.780;2022-11-15T02:36:09;10.88;;;7.53;;
45114;SDS011;30877;43.706;10.780;2022-11-15T02:39:02;8.68;;;7.30;;
45114;SDS011;30877;43.706;10.780;2022-11-15T02:41:53;8.02;;;6.78;;
45114;SDS011;30877;43.706;10.780;2022-11-15T02:44:45;11.95;;;7.57;;
45114;SDS011;30877;43.706;10.780;2022-11-15T02:47:34;9.50;;;6.80;;
45114;SDS011;30877;43.706;10.780;2022-11-15T02:50:29;8.75;;;7.25;;
45114;SDS011;30877;43.706;10.780;2022-11-15T02:53:17;11.00;;;6.88;;
45114;SDS011;30877;43.706;10.780;2022-11-15T02:56:04;11.90;;;7.78;;
45114;SDS011;30877;43.706;10.780;2022-11-15T03:02:06;10.98;;;7.53;;
45114;SDS011;30877;43.706;10.780;2022-11-15T03:05:04;10.05;;;7.90;;
45114;SDS011;30877;43.706;10.780;2022-11-15T03:08:04;11.23;;;8.10;;
45114;SDS011;30877;43.706;10.780;2022-11-15T03:10:58;12.63;;;8.27;;
45114;SDS011;30877;43.706;10.780;2022-11-15T03:13:54;11.38;;;7.82;;
45114;SDS011;30877;43.706;10.780;2022-11-15T03:16:45;10.10;;;7.32;;
45114;SDS011;30877;43.706;10.780;2022-11-15T03:19:38;10.85;;;8.43;;
45114;SDS011;30877;43.706;10.780;2022-11-15T03:22:39;9.23;;;7.78;;
45114;SDS011;30877;43.706;10.780;2022-11-15T03:25:30;11.32;;;8.18;;
45114;SDS011;30877;43.706;10.780;2022-11-15T03:28:20;8.65;;;7.32;;
45114;SDS011;30877;43.706;10.780;2022-11-15T03:31:10;8.57;;;7.35;;
45114;SDS011;30877;43.706;10.780;2022-11-15T03:34:22;11.40;;;7.78;;
45114;SDS011;30877;43.706;10.780;2022-11-15T03:37:14;11.10;;;8.00;;
45114;SDS011;30877;43.706;10.780;2022-11-15T03:40:02;10.60;;;7.78;;
45114;SDS011;30877;43.706;10.780;2022-11-15T03:42:52;10.93;;;7.65;;
45114;SDS011;30877;43.706;10.780;2022-11-15T03:45:46;9.90;;;7.65;;
45114;SDS011;30877;43.706;10.780;2022-11-15T03:48:37;11.98;;;7.85;;
45114;SDS011;30877;43.706;10.780;2022-11-15T03:51:28;8.63;;;6.97;;
45114;SDS011;30877;43.706;10.780;2022-11-15T03:54:15;9.75;;;7.57;;
45114;SDS011;30877;43.706;10.780;2022-11-15T03:57:02;9.80;;;7.40;;
45114;SDS011;30877;43.706;10.780;2022-11-15T03:59:50;9.40;;;7.43;;
45114;SDS011;30877;43.706;10.780;2022-11-15T04:02:37;8.82;;;7.13;;
45114;SDS011;30877;43.706;10.780;2022-11-15T04:05:23;11.52;;;8.25;;
45114;SDS011;30877;43.706;10.780;2022-11-15T04:08:10;10.02;;;7.43;;
45114;SDS011;30877;43.706;10.780;2022-11-15T04:10:56;9.60;;;7.15;;
45114;SDS011;30877;43.706;10.780;2022-11-15T04:13:43;9.73;;;7.63;;
45114;SDS011;30877;43.706;10.780;2022-11-15T04:16:31;8.73;;;7.40;;
45114;SDS011;30877;43.706;10.780;2022-11-15T04:19:17;10.13;;;7.57;;
45114;SDS011;30877;43.706;10.780;2022-11-15T04:22:22;9.68;;;7.50;;
45114;SDS011;30877;43.706;10.780;2022-11-15T04:25:27;9.93;;;7.70;;
45114;SDS011;30877;43.706;10.780;2022-11-15T04:28:16;9.52;;;7.05;;
45114;SDS011;30877;43.706;10.780;2022-11-15T04:31:03;9.13;;;6.88;;
45114;SDS011;30877;43.706;10.780;2022-11-15T04:33:51;10.45;;;7.38;;
45114;SDS011;30877;43.706;10.780;2022-11-15T04:36:39;9.30;;;7.18;;
45114;SDS011;30877;43.706;10.780;2022-11-15T04:39:44;9.15;;;7.22;;
45114;SDS011;30877;43.706;10.780;2022-11-15T04:42:31;10.18;;;8.27;;
45114;SDS011;30877;43.706;10.780;2022-11-15T04:45:17;9.60;;;7.68;;
45114;SDS011;30877;43.706;10.780;2022-11-15T04:48:04;9.70;;;7.40;;
45114;SDS011;30877;43.706;10.780;2022-11-15T04:50:52;10.95;;;7.60;;
45114;SDS011;30877;43.706;10.780;2022-11-15T04:53:39;9.75;;;7.57;;
45114;SDS011;30877;43.706;10.780;2022-11-15T04:56:25;9.48;;;7.03;;
45114;SDS011;30877;43.706;10.780;2022-11-15T04:59:11;9.95;;;7.18;;
45114;SDS011;30877;43.706;10.780;2022-11-15T05:01:58;9.85;;;7.57;;
45114;SDS011;30877;43.706;10.780;2022-11-15T05:04:45;10.50;;;6.85;;
45114;SDS011;30877;43.706;10.780;2022-11-15T05:07:32;8.50;;;7.60;;
45114;SDS011;30877;43.706;10.780;2022-11-15T05:10:19;10.68;;;7.40;;
45114;SDS011;30877;43.706;10.780;2022-11-15T05:13:06;9.73;;;6.90;;
45114;SDS011;30877;43.706;10.780;2022-11-15T05:15:52;10.67;;;7.53;;
45114;SDS011;30877;43.706;10.780;2022-11-15T05:18:39;8.75;;;7.13;;
45114;SDS011;30877;43.706;10.780;2022-11-15T05:21:28;10.18;;;7.22;;
45114;SDS011;30877;43.706;10.780;2022-11-15T05:27:03;10.10;;;7.10;;
45114;SDS011;30877;43.706;10.780;2022-11-15T05:29:49;8.70;;;7.05;;
45114;SDS011;30877;43.706;10.780;2022-11-15T05:32:36;9.32;;;7.57;;
45114;SDS011;30877;43.706;10.780;2022-11-15T05:35:25;7.55;;;6.53;;
45114;SDS011;30877;43.706;10.780;2022-11-15T05:38:17;9.20;;;7.00;;
45114;SDS011;30877;43.706;10.780;2022-11-15T05:41:04;10.30;;;7.35;;
45114;SDS011;30877;43.706;10.780;2022-11-15T05:43:52;9.10;;;7.18;;
45114;SDS011;30877;43.706;10.780;2022-11-15T05:46:39;7.30;;;5.93;;
45114;SDS011;30877;43.706;10.780;2022-11-15T05:49:28;8.88;;;7.22;;
45114;SDS011;30877;43.706;10.780;2022-11-15T05:52:20;7.60;;;6.80;;
45114;SDS011;30877;43.706;10.780;2022-11-15T05:55:08;8.50;;;6.35;;
45114;SDS011;30877;43.706;10.780;2022-11-15T05:57:56;9.75;;;6.65;;
45114;SDS011;30877;43.706;10.780;2022-11-15T06:00:43;7.97;;;6.35;;
45114;SDS011;30877;43.706;10.780;2022-11-15T06:03:30;9.65;;;6.45;;
45114;SDS011;30877;43.706;10.780;2022-11-15T06:06:17;8.18;;;6.90;;
45114;SDS011;30877;43.706;10.780;2022-11-15T06:09:03;7.65;;;6.30;;
45114;SDS011;30877;43.706;10.780;2022-11-15T06:11:49;8.67;;;6.73;;
45114;SDS011;30877;43.706;10.780;2022-11-15T06:14:37;12.68;;;6.90;;
45114;SDS011;30877;43.706;10.780;2022-11-15T06:17:24;12.43;;;7.00;;
45114;SDS011;30877;43.706;10.780;2022-11-15T06:20:11;10.13;;;7.10;;
45114;SDS011;30877;43.706;10.780;2022-11-15T06:22:57;9.05;;;7.07;;
45114;SDS011;30877;43.706;10.780;2022-11-15T06:25:44;8.68;;;6.55;;
45114;SDS011;30877;43.706;10.780;2022-11-15T06:28:31;7.87;;;6.80;;
45114;SDS011;30877;43.706;10.780;2022-11-15T06:31:19;8.25;;;6.95;;
45114;SDS011;30877;43.706;10.780;2022-11-15T06:34:06;8.00;;;6.80;;
45114;SDS011;30877;43.706;10.780;2022-11-15T06:36:52;9.13;;;6.93;;
45114;SDS011;30877;43.706;10.780;2022-11-15T06:39:38;10.27;;;6.37;;
45114;SDS011;30877;43.706;10.780;2022-11-15T06:42:25;7.68;;;6.35;;
45114;SDS011;30877;43.706;10.780;2022-11-15T06:45:11;8.70;;;6.28;;
45114;SDS011;30877;43.706;10.780;2022-11-15T06:47:59;7.82;;;6.35;;
45114;SDS011;30877;43.706;10.780;2022-11-15T06:50:49;7.68;;;6.30;;
45114;SDS011;30877;43.706;10.780;2022-11-15T06:53:37;7.38;;;6.03;;
45114;SDS011;30877;43.706;10.780;2022-11-15T06:56:23;14.23;;;6.68;;
45114;SDS011;30877;43.706;10.780;2022-11-15T06:59:10;8.23;;;6.50;;
45114;SDS011;30877;43.706;10.780;2022-11-15T07:01:56;9.70;;;6.47;;
45114;SDS011;30877;43.706;10.780;2022-11-15T07:04:44;8.70;;;6.18;;
45114;SDS011;30877;43.706;10.780;2022-11-15T07:07:30;6.72;;;5.85;;
45114;SDS011;30877;43.706;10.780;2022-11-15T07:10:17;7.93;;;6.28;;
45114;SDS011;30877;43.706;10.780;2022-11-15T07:13:03;7.55;;;6.00;;
45114;SDS011;30877;43.706;10.780;2022-11-15T07:15:50;8.88;;;6.13;;
45114;SDS011;30877;43.706;10.780;2022-11-15T07:18:37;7.68;;;6.53;;
45114;SDS011;30877;43.706;10.780;2022-11-15T07:21:26;8.25;;;6.50;;
45114;SDS011;30877;43.706;10.780;2022-11-15T07:24:12;8.25;;;6.28;;
45114;SDS011;30877;43.706;10.780;2022-11-15T07:26:58;9.02;;;7.07;;
45114;SDS011;30877;43.706;10.780;2022-11-15T07:29:45;7.40;;;6.55;;
45114;SDS011;30877;43.706;10.780;2022-11-15T07:32:31;7.80;;;5.93;;
45114;SDS011;30877;43.706;10.780;2022-11-15T07:35:18;9.88;;;6.72;;
45114;SDS011;30877;43.706;10.780;2022-11-15T07:38:05;8.07;;;6.70;;
45114;SDS011;30877;43.706;10.780;2022-11-15T07:40:55;8.18;;;7.07;;
45114;SDS011;30877;43.706;10.780;2022-11-15T07:43:42;14.60;;;7.20;;
45114;SDS011;30877;43.706;10.780;2022-11-15T07:46:29;9.60;;;7.35;;
45114;SDS011;30877;43.706;10.780;2022-11-15T07:49:16;8.48;;;6.78;;
45114;SDS011;30877;43.706;10.780;2022-11-15T07:52:02;10.07;;;7.37;;
45114;SDS011;30877;43.706;10.780;2022-11-15T07:54:50;12.32;;;7.85;;
45114;SDS011;30877;43.706;10.780;2022-11-15T07:57:37;9.63;;;7.35;;
45114;SDS011;30877;43.706;10.780;2022-11-15T08:00:23;9.75;;;7.45;;
45114;SDS011;30877;43.706;10.780;2022-11-15T08:03:10;8.57;;;7.07;;
45114;SDS011;30877;43.706;10.780;2022-11-15T08:05:58;11.98;;;7.93;;
45114;SDS011;30877;43.706;10.780;2022-11-15T08:08:46;9.95;;;7.53;;
45114;SDS011;30877;43.706;10.780;2022-11-15T08:11:34;7.63;;;6.72;;
45114;SDS011;30877;43.706;10.780;2022-11-15T08:14:20;10.13;;;7.15;;
45114;SDS011;30877;43.706;10.780;2022-11-15T08:17:07;9.48;;;8.05;;
45114;SDS011;30877;43.706;10.780;2022-11-15T08:19:53;8.02;;;6.72;;
45114;SDS011;30877;43.706;10.780;2022-11-15T08:22:40;8.32;;;6.28;;
45114;SDS011;30877;43.706;10.780;2022-11-15T08:25:27;8.98;;;6.90;;
45114;SDS011;30877;43.706;10.780;2022-11-15T08:28:16;8.85;;;6.90;;
45114;SDS011;30877;43.706;10.780;2022-11-15T08:31:03;11.65;;;6.95;;
45114;SDS011;30877;43.706;10.780;2022-11-15T08:33:50;7.50;;;6.53;;
45114;SDS011;30877;43.706;10.780;2022-11-15T08:36:37;8.20;;;6.38;;
45114;SDS011;30877;43.706;10.780;2022-11-15T08:39:30;9.00;;;6.70;;
45114;SDS011;30877;43.706;10.780;2022-11-15T08:42:16;8.95;;;6.60;;
45114;SDS011;30877;43.706;10.780;2022-11-15T08:45:07;7.60;;;6.22;;
45114;SDS011;30877;43.706;10.780;2022-11-15T08:47:54;9.70;;;6.30;;
45114;SDS011;30877;43.706;10.780;2022-11-15T08:50:41;9.15;;;6.40;;
45114;SDS011;30877;43.706;10.780;2022-11-15T08:53:29;8.40;;;6.55;;
45114;SDS011;30877;43.706;10.780;2022-11-15T08:56:16;10.02;;;6.63;;
45114;SDS011;30877;43.706;10.780;2022-11-15T08:59:02;10.10;;;7.20;;
45114;SDS011;30877;43.706;10.780;2022-11-15T09:01:50;9.68;;;6.50;;
45114;SDS011;30877;43.706;10.780;2022-11-15T09:04:39;8.75;;;7.07;;
45114;SDS011;30877;43.706;10.780;2022-11-15T09:07:26;9.85;;;6.68;;
45114;SDS011;30877;43.706;10.780;2022-11-15T09:10:15;8.23;;;6.90;;
45114;SDS011;30877;43.706;10.780;2022-11-15T09:13:02;9.13;;;6.85;;
45114;SDS011;30877;43.706;10.780;2022-11-15T09:15:48;8.32;;;7.28;;
45114;SDS011;30877;43.706;10.780;2022-11-15T09:18:36;7.97;;;6.05;;
45114;SDS011;30877;43.706;10.780;2022-11-15T09:21:23;8.40;;;6.88;;
45114;SDS011;30877;43.706;10.780;2022-11-15T09:24:09;10.13;;;6.82;;
45114;SDS011;30877;43.706;10.780;2022-11-15T09:26:57;8.80;;;6.88;;
45114;SDS011;30877;43.706;10.780;2022-11-15T09:29:43;9.63;;;8.02;;
45114;SDS011;30877;43.706;10.780;2022-11-15T09:32:30;8.27;;;7.13;;
45114;SDS011;30877;43.706;10.780;2022-11-15T09:35:25;7.68;;;6.35;;
45114;SDS011;30877;43.706;10.780;2022-11-15T09:38:12;9.38;;;6.82;;
45114;SDS011;30877;43.706;10.780;2022-11-15T09:41:08;8.25;;;7.05;;
45114;SDS011;30877;43.706;10.780;2022-11-15T09:44:31;9.23;;;6.97;;
45114;SDS011;30877;43.706;10.780;2022-11-15T09:51:01;9.35;;;6.85;;
45114;SDS011;30877;43.706;10.780;2022-11-15T09:53:32;9.00;;;6.53;;
45114;SDS011;30877;43.706;10.780;2022-11-15T09:56:26;9.48;;;7.07;;
45114;SDS011;30877;43.706;10.780;2022-11-15T09:58:59;8.95;;;7.07;;
45114;SDS011;30877;43.706;10.780;2022-11-15T10:01:43;7.47;;;6.50;;
45114;SDS011;30877;43.706;10.780;2022-11-15T10:04:16;11.50;;;7.32;;
45114;SDS011;30877;43.706;10.780;2022-11-15T10:06:49;10.52;;;7.28;;
45114;SDS011;30877;43.706;10.780;2022-11-15T10:09:23;9.15;;;7.88;;
45114;SDS011;30877;43.706;10.780;2022-11-15T10:11:55;9.73;;;7.00;;
45114;SDS011;30877;43.706;10.780;2022-11-15T10:14:24;7.53;;;6.68;;
45114;SDS011;30877;43.706;10.780;2022-11-15T10:17:15;9.10;;;6.95;;
45114;SDS011;30877;43.706;10.780;2022-11-15T10:20:13;7.10;;;6.38;;
45114;SDS011;30877;43.706;10.780;2022-11-15T10:22:47;9.35;;;7.47;;
45114;SDS011;30877;43.706;10.780;2022-11-15T10:25:21;7.63;;;6.60;;
45114;SDS011;30877;43.706;10.780;2022-11-15T10:27:52;9.70;;;7.47;;
45114;SDS011;30877;43.706;10.780;2022-11-15T10:30:30;9.65;;;7.93;;
45114;SDS011;30877;43.706;10.780;2022-11-15T10:33:08;9.60;;;7.28;;
45114;SDS011;30877;43.706;10.780;2022-11-15T10:35:48;7.47;;;6.68;;
45114;SDS011;30877;43.706;10.780;2022-11-15T10:41:30;10.30;;;6.78;;
45114;SDS011;30877;43.706;10.780;2022-11-15T10:44:11;9.40;;;7.63;;
45114;SDS011;30877;43.706;10.780;2022-11-15T10:46:47;10.50;;;8.02;;
45114;SDS011;30877;43.706;10.780;2022-11-15T10:49:33;9.98;;;7.90;;
45114;SDS011;30877;43.706;10.780;2022-11-15T10:52:02;8.63;;;7.20;;
45114;SDS011;30877;43.706;10.780;2022-11-15T10:54:37;10.80;;;8.27;;
45114;SDS011;30877;43.706;10.780;2022-11-15T10:57:14;9.00;;;7.60;;
45114;SDS011;30877;43.706;10.780;2022-11-15T10:59:44;10.32;;;8.60;;
45114;SDS011;30877;43.706;10.780;2022-11-15T11:05:26;8.43;;;7.38;;
45114;SDS011;30877;43.706;10.780;2022-11-15T11:07:57;11.40;;;8.48;;
45114;SDS011;30877;43.706;10.780;2022-11-15T11:10:28;9.57;;;8.32;;
45114;SDS011;30877;43.706;10.780;2022-11-15T11:13:21;9.18;;;8.07;;
45114;SDS011;30877;43.706;10.780;2022-11-15T11:15:52;12.38;;;8.73;;
45114;SDS011;30877;43.706;10.780;2022-11-15T11:18:27;10.60;;;9.27;;
45114;SDS011;30877;43.706;10.780;2022-11-15T11:21:02;11.48;;;9.18;;
45114;SDS011;30877;43.706;10.780;2022-11-15T11:23:40;11.68;;;9.25;;
45114;SDS011;30877;43.706;10.780;2022-11-15T11:26:49;10.60;;;9.50;;
45114;SDS011;30877;43.706;10.780;2022-11-15T11:29:30;11.95;;;9.15;;
45114;SDS011;30877;43.706;10.780;2022-11-15T11:32:09;10.68;;;9.30;;
45114;SDS011;30877;43.706;10.780;2022-11-15T11:34:52;9.95;;;8.70;;
45114;SDS011;30877;43.706;10.780;2022-11-15T11:37:28;14.05;;;9.65;;
45114;SDS011;30877;43.706;10.780;2022-11-15T11:40:06;10.40;;;9.05;;
45114;SDS011;30877;43.706;10.780;2022-11-15T11:42:47;13.43;;;10.48;;
45114;SDS011;30877;43.706;10.780;2022-11-15T11:45:31;13.02;;;11.18;;
45114;SDS011;30877;43.706;10.780;2022-11-15T11:48:23;13.65;;;10.60;;
45114;SDS011;30877;43.706;10.780;2022-11-15T11:51:03;12.52;;;9.18;;
45114;SDS011;30877;43.706;10.780;2022-11-15T11:53:36;11.88;;;9.15;;
45114;SDS011;30877;43.706;10.780;2022-11-15T11:56:14;10.98;;;8.77;;
45114;SDS011;30877;43.706;10.780;2022-11-15T11:58:50;10.18;;;8.40;;
45114;SDS011;30877;43.706;10.780;2022-11-15T12:01:22;10.45;;;7.85;;
45114;SDS011;30877;43.706;10.780;2022-11-15T12:03:56;9.85;;;7.93;;
45114;SDS011;30877;43.706;10.780;2022-11-15T12:06:29;9.20;;;7.70;;
45114;SDS011;30877;43.706;10.780;2022-11-15T12:09:02;10.77;;;8.82;;
45114;SDS011;30877;43.706;10.780;2022-11-15T12:11:43;10.60;;;8.88;;
45114;SDS011;30877;43.706;10.780;2022-11-15T12:14:25;10.68;;;8.38;;
45114;SDS011;30877;43.706;10.780;2022-11-15T12:16:59;10.07;;;8.88;;
45114;SDS011;30877;43.706;10.780;2022-11-15T12:19:28;11.25;;;9.65;;
45114;SDS011;30877;43.706;10.780;2022-11-15T12:21:59;10.05;;;8.85;;
45114;SDS011;30877;43.706;10.780;2022-11-15T12:24:33;12.82;;;10.40;;
45114;SDS011;30877;43.706;10.780;2022-11-15T12:27:06;11.95;;;10.43;;
45114;SDS011;30877;43.706;10.780;2022-11-15T12:29:49;12.10;;;9.20;;
45114;SDS011;30877;43.706;10.780;2022-11-15T12:32:24;11.85;;;10.13;;
45114;SDS011;30877;43.706;10.780;2022-11-15T12:34:54;11.88;;;10.40;;
45114;SDS011;30877;43.706;10.780;2022-11-15T12:40:17;12.02;;;10.18;;
45114;SDS011;30877;43.706;10.780;2022-11-15T12:43:01;11.85;;;9.57;;
45114;SDS011;30877;43.706;10.780;2022-11-15T12:45:54;12.75;;;8.95;;
45114;SDS011;30877;43.706;10.780;2022-11-15T12:51:16;14.05;;;8.70;;
45114;SDS011;30877;43.706;10.780;2022-11-15T12:53:46;11.98;;;9.68;;
45114;SDS011;30877;43.706;10.780;2022-11-15T12:56:18;11.65;;;9.80;;
45114;SDS011;30877;43.706;10.780;2022-11-15T12:58:52;12.57;;;10.75;;
45114;SDS011;30877;43.706;10.780;2022-11-15T13:04:29;12.57;;;10.30;;
45114;SDS011;30877;43.706;10.780;2022-11-15T13:06:59;12.27;;;10.65;;
45114;SDS011;30877;43.706;10.780;2022-11-15T13:09:52;13.90;;;10.07;;
45114;SDS011;30877;43.706;10.780;2022-11-15T13:18:34;13.95;;;10.60;;
45114;SDS011;30877;43.706;10.780;2022-11-15T13:21:16;11.43;;;10.10;;
45114;SDS011;30877;43.706;10.780;2022-11-15T13:24:09;11.60;;;10.30;;
45114;SDS011;30877;43.706;10.780;2022-11-15T13:26:40;12.25;;;8.52;;
45114;SDS011;30877;43.706;10.780;2022-11-15T13:29:14;9.80;;;8.70;;
45114;SDS011;30877;43.706;10.780;2022-11-15T13:31:44;9.80;;;8.15;;
45114;SDS011;30877;43.706;10.780;2022-11-15T13:34:25;9.50;;;8.50;;
45114;SDS011;30877;43.706;10.780;2022-11-15T13:37:27;9.43;;;8.05;;
45114;SDS011;30877;43.706;10.780;2022-11-15T13:40:10;9.63;;;8.07;;
45114;SDS011;30877;43.706;10.780;2022-11-15T13:42:45;11.30;;;8.48;;
45114;SDS011;30877;43.706;10.780;2022-11-15T13:45:13;10.35;;;9.07;;
45114;SDS011;30877;43.706;10.780;2022-11-15T13:47:50;9.07;;;8.02;;
45114;SDS011;30877;43.706;10.780;2022-11-15T13:50:21;8.63;;;7.70;;
45114;SDS011;30877;43.706;10.780;2022-11-15T13:52:52;10.27;;;8.85;;
45114;SDS011;30877;43.706;10.780;2022-11-15T13:55:22;10.90;;;8.15;;
45114;SDS011;30877;43.706;10.780;2022-11-15T13:57:53;10.85;;;8.90;;
45114;SDS011;30877;43.706;10.780;2022-11-15T14:00:30;11.20;;;9.27;;
45114;SDS011;30877;43.706;10.780;2022-11-15T14:03:13;10.38;;;8.57;;
45114;SDS011;30877;43.706;10.780;2022-11-15T14:05:46;12.90;;;9.13;;
45114;SDS011;30877;43.706;10.780;2022-11-15T14:08:30;11.32;;;8.93;;
45114;SDS011;30877;43.706;10.780;2022-11-15T14:13:59;11.27;;;8.85;;
45114;SDS011;30877;43.706;10.780;2022-11-15T14:16:42;10.35;;;8.38;;
45114;SDS011;30877;43.706;10.780;2022-11-15T14:19:13;9.65;;;8.25;;
45114;SDS011;30877;43.706;10.780;2022-11-15T14:22:13;11.55;;;8.25;;
45114;SDS011;30877;43.706;10.780;2022-11-15T14:24:43;12.60;;;8.60;;
45114;SDS011;30877;43.706;10.780;2022-11-15T14:27:23;11.00;;;9.10;;
45114;SDS011;30877;43.706;10.780;2022-11-15T14:29:52;11.82;;;8.68;;
45114;SDS011;30877;43.706;10.780;2022-11-15T14:32:21;9.93;;;8.93;;
45114;SDS011;30877;43.706;10.780;2022-11-15T14:34:53;10.73;;;8.77;;
45114;SDS011;30877;43.706;10.780;2022-11-15T14:37:26;9.90;;;8.43;;
45114;SDS011;30877;43.706;10.780;2022-11-15T14:39:54;10.07;;;8.63;;
45114;SDS011;30877;43.706;10.780;2022-11-15T14:42:22;11.68;;;8.65;;
45114;SDS011;30877;43.706;10.780;2022-11-15T14:44:50;9.15;;;8.02;;
45114;SDS011;30877;43.706;10.780;2022-11-15T14:47:18;11.05;;;8.88;;
45114;SDS011;30877;43.706;10.780;2022-11-15T14:49:46;11.52;;;9.07;;
45114;SDS011;30877;43.706;10.780;2022-11-15T14:52:25;10.98;;;8.55;;
45114;SDS011;30877;43.706;10.780;2022-11-15T14:54:58;11.45;;;8.70;;
45114;SDS011;30877;43.706;10.780;2022-11-15T14:57:28;9.98;;;8.57;;
45114;SDS011;30877;43.706;10.780;2022-11-15T14:59:55;10.40;;;8.48;;
45114;SDS011;30877;43.706;10.780;2022-11-15T15:02:37;9.48;;;7.75;;
45114;SDS011;30877;43.706;10.780;2022-11-15T15:05:11;10.18;;;8.57;;
45114;SDS011;30877;43.706;10.780;2022-11-15T15:07:43;10.70;;;8.43;;
45114;SDS011;30877;43.706;10.780;2022-11-15T15:10:11;9.73;;;8.40;;
45114;SDS011;30877;43.706;10.780;2022-11-15T15:12:59;10.70;;;8.75;;
45114;SDS011;30877;43.706;10.780;2022-11-15T15:15:29;11.27;;;8.25;;
45114;SDS011;30877;43.706;10.780;2022-11-15T15:18:00;10.02;;;8.15;;
45114;SDS011;30877;43.706;10.780;2022-11-15T15:20:28;10.98;;;9.07;;
45114;SDS011;30877;43.706;10.780;2022-11-15T15:22:57;11.52;;;8.75;;
45114;SDS011;30877;43.706;10.780;2022-11-15T15:25:27;12.07;;;10.30;;
45114;SDS011;30877;43.706;10.780;2022-11-15T15:27:56;14.68;;;11.23;;
45114;SDS011;30877;43.706;10.780;2022-11-15T15:30:26;13.02;;;9.85;;
45114;SDS011;30877;43.706;10.780;2022-11-15T15:32:55;13.30;;;11.02;;
45114;SDS011;30877;43.706;10.780;2022-11-15T15:35:23;11.00;;;9.80;;
45114;SDS011;30877;43.706;10.780;2022-11-15T15:37:59;9.77;;;8.73;;
45114;SDS011;30877;43.706;10.780;2022-11-15T15:40:30;13.52;;;9.38;;
45114;SDS011;30877;43.706;10.780;2022-11-15T15:42:59;10.93;;;9.13;;
45114;SDS011;30877;43.706;10.780;2022-11-15T15:45:27;11.18;;;9.00;;
45114;SDS011;30877;43.706;10.780;2022-11-15T15:47:56;10.70;;;8.95;;
45114;SDS011;30877;43.706;10.780;2022-11-15T15:50:25;10.15;;;8.45;;
45114;SDS011;30877;43.706;10.780;2022-11-15T15:52:54;12.88;;;9.57;;
45114;SDS011;30877;43.706;10.780;2022-11-15T15:55:24;10.30;;;9.00;;
45114;SDS011;30877;43.706;10.780;2022-11-15T15:57:52;14.63;;;10.25;;
45114;SDS011;30877;43.706;10.780;2022-11-15T16:00:21;10.50;;;9.23;;
45114;SDS011;30877;43.706;10.780;2022-11-15T16:02:51;10.48;;;9.05;;
45114;SDS011;30877;43.706;10.780;2022-11-15T16:05:19;11.00;;;9.25;;
45114;SDS011;30877;43.706;10.780;2022-11-15T16:07:48;10.02;;;8.70;;
45114;SDS011;30877;43.706;10.780;2022-11-15T16:10:20;10.48;;;8.90;;
45114;SDS011;30877;43.706;10.780;2022-11-15T16:12:51;9.93;;;8.82;;
45114;SDS011;30877;43.706;10.780;2022-11-15T16:15:20;11.20;;;9.75;;
45114;SDS011;30877;43.706;10.780;2022-11-15T16:17:49;12.40;;;10.18;;
45114;SDS011;30877;43.706;10.780;2022-11-15T16:23:03;11.98;;;9.82;;
45114;SDS011;30877;43.706;10.780;2022-11-15T16:25:37;11.90;;;9.73;;
45114;SDS011;30877;43.706;10.780;2022-11-15T16:28:16;10.10;;;8.77;;
45114;SDS011;30877;43.706;10.780;2022-11-15T16:30:45;10.40;;;9.00;;
45114;SDS011;30877;43.706;10.780;2022-11-15T16:33:21;13.63;;;11.15;;
45114;SDS011;30877;43.706;10.780;2022-11-15T16:35:49;13.40;;;11.63;;
45114;SDS011;30877;43.706;10.780;2022-11-15T16:38:17;13.45;;;10.82;;
45114;SDS011;30877;43.706;10.780;2022-11-15T16:40:45;13.00;;;10.30;;
45114;SDS011;30877;43.706;10.780;2022-11-15T16:43:13;12.00;;;9.15;;